Time;durP1;ratioP1;P1;durP2;ratioP2;P2;SDS_P1;SDS_P2;PMS_P1;PMS_P2;Temp;Humidity;BMP_temperature;BMP_pressure;BME280_temperature;BME280_humidity;BME280_pressure;Samples;Min_cycle;Max_cycle;Signal;HPM_P1;HPM_P2
2022/06/19 00:01:16;;;;;;;3.20;1.60;;;;;;;;;;5033611;28;20418;-88
2022/06/19 00:03:46;;;;;;;10.80;1.67;;;26.00;56.10;;;;;;5058209;28;20423;-88
2022/06/19 00:06:13;;;;;;;4.00;1.50;;;25.90;56.20;;;;;;5052288;28;20419;-88
2022/06/19 00:08:39;;;;;;;4.67;1.53;;;26.00;73.70;;;;;;5049509;28;20450;-88
2022/06/19 00:11:06;;;;;;;3.20;1.47;;;25.80;56.10;;;;;;5052212;28;20418;-88
2022/06/19 00:13:32;;;;;;;7.77;1.60;;;;;;;;;;5051052;28;20426;-88
2022/06/19 00:15:59;;;;;;;3.07;2.60;;;25.90;56.60;;;;;;5047756;28;20875;-88
2022/06/19 00:18:24;;;;;;;5.30;2.33;;;;;;;;;;5050258;28;20470;-88
2022/06/19 00:20:51;;;;;;;3.77;2.10;;;;;;;;;;5049388;28;20414;-88
2022/06/19 00:23:17;;;;;;;2.80;2.10;;;;;;;;;;5049842;28;20458;-88
2022/06/19 00:25:43;;;;;;;1.97;1.37;;;;;;;;;;5049533;28;20407;-88
2022/06/19 00:28:09;;;;;;;3.80;1.33;;;;;;;;;;5049020;28;20418;-89
2022/06/19 00:30:35;;;;;;;4.00;1.50;;;;;;;;;;5049289;28;20796;-88
2022/06/19 00:33:02;;;;;;;2.97;1.63;;;;;;;;;;5049304;28;20517;-88
2022/06/19 00:35:28;;;;;;;6.20;1.60;;;;;;;;;;5049161;28;20475;-88
2022/06/19 00:37:55;;;;;;;2.10;1.70;;;25.90;55.80;;;;;;5049130;28;20464;-89
2022/06/19 00:40:21;;;;;;;2.20;1.77;;;25.70;55.70;;;;;;5049030;28;20795;-89
2022/06/19 00:42:47;;;;;;;1.63;1.30;;;;;;;;;;5051859;28;20485;-88
2022/06/19 00:45:37;;;;;;;4.30;1.80;;;25.90;58.30;;;;;;5052164;28;20426;-88
2022/06/19 00:48:10;;;;;;;4.37;1.50;;;25.80;55.70;;;;;;5051743;28;20478;-88
2022/06/19 00:50:37;;;;;;;3.47;1.40;;;25.70;55.50;;;;;;5050219;28;20505;-88
2022/06/19 00:53:08;;;;;;;2.40;1.10;;;25.80;55.60;;;;;;5052266;28;20489;-88
2022/06/19 00:55:38;;;;;;;19.93;12.63;;;26.10;58.60;;;;;;5052330;28;20734;-88
2022/06/19 00:58:04;;;;;;;2.37;1.57;;;;;;;;;;5052957;28;20826;-89
2022/06/19 01:00:31;;;;;;;3.23;1.50;;;25.90;55.60;;;;;;5053234;28;20426;-88
2022/06/19 01:03:00;;;;;;;3.27;1.20;;;25.90;55.60;;;;;;5050815;28;20239;-88
2022/06/19 01:05:27;;;;;;;2.00;1.40;;;26.20;55.70;;;;;;5041799;28;20422;-89
2022/06/19 01:07:56;;;;;;;2.60;1.80;;;25.90;55.60;;;;;;5052606;28;20887;-89
2022/06/19 01:10:22;;;;;;;28.07;16.63;;;;;;;;;;5052307;28;20419;-89
2022/06/19 01:12:48;;;;;;;6.63;1.67;;;;;;;;;;5052039;28;20750;-89
2022/06/19 01:15:20;;;;;;;2.50;2.27;;;25.90;55.60;;;;;;5051812;28;20800;-88
2022/06/19 01:17:52;;;;;;;4.07;1.60;;;25.90;55.20;;;;;;5050741;28;20874;-88
2022/06/19 01:20:26;;;;;;;1.43;1.33;;;;;;;;;;5034257;28;20427;-89
2022/06/19 01:23:18;;;;;;;4.87;2.37;;;25.90;55.20;;;;;;5049721;28;20614;-88
2022/06/19 01:25:44;;;;;;;8.67;1.90;;;;;;;;;;5050469;28;20902;-88
2022/06/19 01:31:05;;;;;;;1.70;1.60;;;25.60;55.60;;;;;;5050862;28;20422;-88
2022/06/19 01:33:49;;;;;;;2.80;1.30;;;25.80;55.20;;;;;;5050101;28;20466;-88
2022/06/19 01:36:19;;;;;;;3.07;1.37;;;25.90;56.00;;;;;;5036439;28;20933;-88
2022/06/19 01:38:49;;;;;;;3.80;1.40;;;25.70;55.60;;;;;;5049514;28;20785;-88
2022/06/19 01:41:21;;;;;;;2.20;2.00;;;25.90;55.70;;;;;;5049626;28;20415;-88
2022/06/19 01:43:47;;;;;;;2.93;1.30;;;;;;;;;;5050476;28;20510;-88
2022/06/19 01:46:17;;;;;;;4.13;1.73;;;25.70;73.10;;;;;;5049607;28;20865;-89
2022/06/19 01:48:43;;;;;;;4.77;1.67;;;;;;;;;;5050866;28;20800;-88
2022/06/19 01:51:09;;;;;;;2.97;1.70;;;;;;;;;;5049868;28;20932;-88
2022/06/19 01:53:47;;;;;;;4.40;2.10;;;25.90;55.40;;;;;;5050479;28;20837;-88
2022/06/19 01:56:13;;;;;;;5.33;1.53;;;25.70;56.00;;;;;;5056844;28;20855;-88
2022/06/19 01:58:43;;;;;;;3.70;1.60;;;26.10;56.40;;;;;;5051277;28;20473;-89
2022/06/19 02:01:09;;;;;;;6.10;2.77;;;26.00;63.30;;;;;;5051165;28;20487;-88
2022/06/19 02:03:46;;;;;;;4.60;1.63;;;25.30;55.80;;;;;;5036445;28;20422;-88
2022/06/19 02:06:15;;;;;;;1.87;1.60;;;25.50;56.00;;;;;;5050108;28;20580;-88
2022/06/19 02:08:43;;;;;;;6.47;1.77;;;25.90;56.50;;;;;;5050890;28;20428;-88
2022/06/19 02:11:11;;;;;;;3.30;1.83;;;25.90;56.40;;;;;;5051227;28;20411;-88
2022/06/19 02:13:38;;;;;;;2.93;1.50;;;25.80;56.60;;;;;;5051161;28;20415;-88
2022/06/19 02:16:08;;;;;;;6.10;1.70;;;25.80;56.40;;;;;;5051009;28;20423;-89
2022/06/19 02:18:39;;;;;;;1.07;1.07;;;26.10;56.50;;;;;;5049811;28;20479;-89
2022/06/19 02:21:06;;;;;;;2.53;1.27;;;25.90;56.50;;;;;;5051166;28;20430;-88
2022/06/19 02:23:37;;;;;;;2.20;2.00;;;25.80;56.00;;;;;;5050665;28;20407;-87
2022/06/19 02:26:12;;;;;;;2.20;2.00;;;25.90;56.20;;;;;;5050808;28;20410;-87
2022/06/19 02:28:42;;;;;;;3.50;2.00;;;26.10;56.80;;;;;;5030578;28;20422;-89
2022/06/19 02:31:08;;;;;;;3.73;1.93;;;;;;;;;;5050029;28;20495;-88
2022/06/19 02:33:40;;;;;;;2.00;1.50;;;26.10;56.90;;;;;;5050181;28;20882;-88
2022/06/19 02:36:44;;;;;;;5.93;1.83;;;26.00;56.40;;;;;;5057786;28;20441;-88
2022/06/19 02:39:34;;;;;;;4.10;1.50;;;25.80;56.20;;;;;;5050924;28;20480;-89
2022/06/19 02:42:21;;;;;;;4.20;1.70;;;25.90;56.30;;;;;;5051001;28;20975;-89
2022/06/19 02:44:55;;;;;;;2.40;0.80;;;25.80;56.10;;;;;;5050704;28;20438;-90
2022/06/19 02:47:26;;;;;;;2.33;1.60;;;25.90;70.80;;;;;;5051251;28;20483;-88
2022/06/19 02:49:52;;;;;;;5.97;1.80;;;;;;;;;;5050603;28;20426;-89
2022/06/19 02:52:18;;;;;;;1.23;1.00;;;;;;;;;;5050717;28;20496;-88
2022/06/19 02:54:44;;;;;;;3.53;2.40;;;;;;;;;;5050513;28;20894;-88
2022/06/19 02:57:12;;;;;;;3.17;2.00;;;25.80;56.40;;;;;;5050415;28;20542;-88
2022/06/19 02:59:38;;;;;;;2.30;1.73;;;;;;;;;;5030628;28;20490;-88
2022/06/19 03:02:04;;;;;;;1.73;1.30;;;;;;;;;;5043328;28;20435;-89
2022/06/19 03:04:35;;;;;;;4.10;1.57;;;25.90;56.60;;;;;;5050429;28;20407;-89
2022/06/19 03:07:01;;;;;;;3.70;1.57;;;;;;;;;;5048894;28;20549;-89
2022/06/19 03:09:27;;;;;;;2.57;1.63;;;;;;;;;;5050433;28;20454;-89
2022/06/19 03:11:53;;;;;;;6.03;1.83;;;;;;;;;;5050256;28;21104;-88
2022/06/19 03:14:19;;;;;;;10.27;1.80;;;;;;;;;;5050663;28;20175;-89
2022/06/19 03:16:47;;;;;;;5.03;2.13;;;25.90;66.70;;;;;;5050155;28;20423;-89
2022/06/19 03:19:13;;;;;;;12.23;1.60;;;25.60;74.30;;;;;;5050012;28;20559;-89
2022/06/19 03:21:39;;;;;;;3.07;2.20;;;;;;;;;;5050096;28;20500;-88
2022/06/19 03:24:05;;;;;;;6.50;1.97;;;;;;;;;;5051054;28;20168;-89
2022/06/19 03:26:32;;;;;;;6.57;2.23;;;;;;;;;;5050103;28;20399;-88
2022/06/19 03:28:58;;;;;;;3.03;1.70;;;25.80;56.30;;;;;;5049391;28;20434;-89
2022/06/19 03:31:26;;;;;;;5.33;2.57;;;25.80;56.70;;;;;;5049497;28;20929;-88
2022/06/19 03:33:53;;;;;;;5.27;2.10;;;;;;;;;;5049558;28;20422;-89
2022/06/19 03:36:19;;;;;;;1.90;1.80;;;25.80;56.20;;;;;;5058463;28;20433;-88
2022/06/19 03:38:45;;;;;;;6.20;1.77;;;;;;;;;;5049640;28;20459;-89
2022/06/19 03:41:11;;;;;;;5.57;1.80;;;;;;;;;;5049484;28;20461;-89
2022/06/19 03:43:37;;;;;;;4.87;1.90;;;25.90;80.00;;;;;;5049548;28;20399;-89
2022/06/19 03:46:15;;;;;;;5.03;2.07;;;25.80;56.50;;;;;;5049537;28;20958;-88
2022/06/19 03:48:43;;;;;;;3.20;1.77;;;25.80;56.40;;;;;;5049397;28;20470;-89
2022/06/19 03:51:09;;;;;;;5.23;1.87;;;25.70;56.70;;;;;;5049734;28;20453;-89
2022/06/19 03:53:35;;;;;;;2.30;1.77;;;;;;;;;;5031922;28;20841;-89
2022/06/19 03:56:01;;;;;;;3.70;1.57;;;;;;;;;;5049653;28;20945;-89
2022/06/19 03:58:45;;;;;;;3.90;2.33;;;;;;;;;;5049158;28;20494;-89
2022/06/19 04:01:11;;;;;;;2.87;1.90;;;;;;;;;;5049296;28;20891;-90
2022/06/19 04:03:37;;;;;;;2.00;0.90;;;;;;;;;;5049397;28;20411;-90
2022/06/19 04:06:03;;;;;;;3.23;1.67;;;;;;;;;;5049323;28;20539;-88
2022/06/19 04:08:29;;;;;;;4.30;1.67;;;;;;;;;;5047507;28;20219;-88
2022/06/19 04:10:55;;;;;;;6.17;1.67;;;;;;;;;;5049531;28;20419;-88
2022/06/19 04:13:21;;;;;;;2.70;1.60;;;;;;;;;;5049617;28;20509;-89
2022/06/19 04:15:46;;;;;;;3.03;2.83;;;25.70;69.70;;;;;;5049362;28;20425;-89
2022/06/19 04:18:12;;;;;;;3.97;2.30;;;;;;;;;;5053397;28;20816;-88
2022/06/19 04:20:38;;;;;;;2.13;2.03;;;;;;;;;;5035189;28;20182;-89
2022/06/19 04:23:06;;;;;;;3.13;2.00;;;26.00;82.30;;;;;;5053148;28;20231;-89
2022/06/19 04:25:32;;;;;;;4.10;1.90;;;;;;;;;;5053280;28;20974;-88
2022/06/19 04:27:58;;;;;;;18.43;2.40;;;;;;;;;;5052640;28;20494;-88
2022/06/19 04:30:23;;;;;;;4.27;1.80;;;;;;;;;;5053079;28;20411;-88
2022/06/19 04:32:49;;;;;;;5.83;1.93;;;;;;;;;;5052822;28;20430;-88
2022/06/19 04:35:15;;;;;;;1.87;1.77;;;;;;;;;;5060205;28;20475;-89
2022/06/19 04:37:43;;;;;;;2.40;1.60;;;;;;;;;;5055933;28;20458;-90
2022/06/19 04:40:09;;;;;;;3.73;1.73;;;;;;;;;;5052823;28;20426;-89
2022/06/19 04:42:35;;;;;;;2.87;1.77;;;;;;;;;;5052902;28;20804;-89
2022/06/19 04:45:01;;;;;;;4.43;1.90;;;;;;;;;;5052682;28;20410;-89
2022/06/19 04:47:27;;;;;;;3.57;1.40;;;;;;;;;;5052690;28;20422;-89
2022/06/19 04:49:53;;;;;;;5.13;2.00;;;;;;;;;;5052425;28;20518;-88
2022/06/19 04:52:18;;;;;;;4.83;1.97;;;;;;;;;;5052611;28;20430;-88
2022/06/19 04:54:45;;;;;;;7.77;2.30;;;;;;;;;;5052623;28;20765;-90
2022/06/19 04:57:11;;;;;;;3.33;1.90;;;;;;;;;;5052428;28;20481;-88
2022/06/19 04:59:38;;;;;;;5.80;2.17;;;;;;;;;;5051936;28;20427;-89
2022/06/19 05:02:04;;;;;;;4.10;1.70;;;;;;;;;;5052320;28;20524;-89
2022/06/19 05:04:29;;;;;;;1.80;1.60;;;;;;;;;;5051305;28;20856;-88
2022/06/19 05:06:55;;;;;;;5.50;2.23;;;;;;;;;;5052199;28;20462;-89
2022/06/19 05:09:21;;;;;;;1.67;1.57;;;;;;;;;;5052136;28;20423;-88
2022/06/19 05:11:47;;;;;;;4.80;2.03;;;;;;;;;;5052330;28;20488;-89
2022/06/19 05:14:16;;;;;;;1.70;1.60;;;;;;;;;;5052488;28;20498;-89
2022/06/19 05:16:42;;;;;;;5.40;1.60;;;;;;;;;;5052453;28;20407;-88
2022/06/19 05:19:10;;;;;;;4.27;1.87;;;25.80;57.60;;;;;;5051804;28;20862;-88
2022/06/19 05:21:36;;;;;;;3.60;1.53;;;;;;;;;;5052090;28;20981;-88
2022/06/19 05:24:02;;;;;;;4.27;1.90;;;;;;;;;;5052475;28;20438;-89
2022/06/19 05:26:31;;;;;;;12.07;1.70;;;25.90;70.80;;;;;;5052191;28;20403;-88
2022/06/19 05:28:58;;;;;;;4.43;2.20;;;;;;;;;;5051804;28;20430;-88
2022/06/19 05:31:25;;;;;;;2.93;2.00;;;25.80;57.80;;;;;;5051682;28;20442;-88
2022/06/19 05:33:51;;;;;;;2.20;1.93;;;27.50;59.70;;;;;;5051419;28;20419;-89
2022/06/19 05:36:17;;;;;;;1.40;1.40;;;;;;;;;;5064818;28;20421;-89
2022/06/19 05:38:43;;;;;;;3.50;2.17;;;25.80;57.30;;;;;;5033019;28;21012;-88
2022/06/19 05:41:10;;;;;;;4.10;1.53;;;;;;;;;;5051301;28;20407;-88
2022/06/19 05:43:36;;;;;;;5.07;2.03;;;;;;;;;;5051201;28;20526;-88
2022/06/19 05:46:08;;;;;;;2.90;2.50;;;25.80;57.60;;;;;;5051440;28;20406;-88
2022/06/19 05:48:34;;;;;;;2.03;1.63;;;25.80;57.00;;;;;;5037491;28;20782;-88
2022/06/19 05:51:04;;;;;;;4.43;1.37;;;25.80;56.90;;;;;;5051724;28;20517;-88
2022/06/19 05:53:32;;;;;;;3.70;2.10;;;25.80;56.80;;;;;;5033702;28;20435;-88
2022/06/19 05:55:58;;;;;;;2.80;1.63;;;25.90;82.30;;;;;;5052002;28;20418;-88
2022/06/19 05:58:24;;;;;;;3.67;1.93;;;;;;;;;;5051286;28;20520;-88
2022/06/19 06:00:50;;;;;;;5.73;1.93;;;;;;;;;;5050901;28;20976;-88
2022/06/19 06:03:18;;;;;;;3.73;1.57;;;25.90;65.90;;;;;;5051333;28;20438;-88
2022/06/19 06:05:44;;;;;;;3.93;1.77;;;26.20;57.00;;;;;;5051387;28;20506;-89
2022/06/19 06:08:10;;;;;;;1.60;1.50;;;25.80;56.30;;;;;;5050831;28;20443;-89
2022/06/19 06:10:36;;;;;;;2.40;1.70;;;;;;;;;;5050992;28;20422;-89
2022/06/19 06:13:03;;;;;;;2.03;1.80;;;;;;;;;;5051109;28;20431;-88
2022/06/19 06:15:28;;;;;;;2.30;1.50;;;;;;;;;;5051024;28;21081;-89
2022/06/19 06:17:54;;;;;;;4.57;2.10;;;;;;;;;;5050309;28;20504;-88
2022/06/19 06:20:21;;;;;;;4.13;1.90;;;;;;;;;;5050927;28;20418;-89
2022/06/19 06:22:46;;;;;;;2.60;1.33;;;;;;;;;;5050819;28;20544;-88
2022/06/19 06:25:13;;;;;;;5.30;2.20;;;25.80;56.20;;;;;;5050507;28;20817;-88
2022/06/19 06:27:39;;;;;;;3.93;1.90;;;;;;;;;;5050605;28;20434;-88
2022/06/19 06:30:05;;;;;;;7.13;1.90;;;25.80;56.70;;;;;;5050267;28;20590;-89
2022/06/19 06:32:31;;;;;;;7.70;2.30;;;;;;;;;;5050411;28;20482;-89
2022/06/19 06:34:57;;;;;;;3.03;1.70;;;;;;;;;;5054933;28;20450;-88
2022/06/19 06:37:23;;;;;;;3.67;2.30;;;;;;;;;;5070353;28;20570;-89
2022/06/19 06:39:49;;;;;;;1.70;1.60;;;;;;;;;;5070055;28;20402;-88
2022/06/19 06:42:15;;;;;;;2.57;1.57;;;;;;;;;;5056759;28;20854;-88
2022/06/19 06:44:44;;;;;;;2.10;1.80;;;;;;;;;;5049889;28;20414;-88
2022/06/19 06:47:10;;;;;;;3.27;1.40;;;;;;;;;;5050604;28;20426;-88
2022/06/19 06:49:36;;;;;;;3.97;1.73;;;;;;;;;;5051140;28;20487;-88
2022/06/19 06:52:02;;;;;;;2.63;1.67;;;24.00;55.10;;;;;;5051445;28;20484;-89
2022/06/19 06:54:29;;;;;;;3.80;1.20;;;;;;;;;;5033149;28;20957;-88
2022/06/19 06:57:00;;;;;;;2.80;2.00;;;25.80;56.70;;;;;;5050386;28;20840;-88
2022/06/19 06:59:26;;;;;;;2.30;1.73;;;;;;;;;;5050522;28;20415;-89
2022/06/19 07:01:52;;;;;;;5.77;1.70;;;;;;;;;;5050292;28;20879;-88
2022/06/19 07:04:18;;;;;;;11.07;1.90;;;;;;;;;;5049910;28;21228;-89
2022/06/19 07:06:44;;;;;;;3.93;1.73;;;;;;;;;;5050053;28;20521;-89
2022/06/19 07:09:10;;;;;;;4.57;1.83;;;;;;;;;;5050000;28;20485;-89
2022/06/19 07:11:38;;;;;;;4.33;2.40;;;25.90;56.50;;;;;;5043874;28;20455;-89
2022/06/19 07:14:04;;;;;;;5.47;1.80;;;;;;;;;;5041320;28;20995;-88
2022/06/19 07:16:30;;;;;;;2.90;1.70;;;;;;;;;;5046424;28;20427;-88
2022/06/19 07:18:56;;;;;;;4.00;2.00;;;;;;;;;;5049880;28;20459;-88
2022/06/19 07:21:22;;;;;;;3.53;1.83;;;;;;;;;;5049962;28;20533;-88
2022/06/19 07:23:49;;;;;;;7.93;2.33;;;26.00;77.70;;;;;;5030158;28;20406;-88
2022/06/19 07:26:17;;;;;;;2.30;1.43;;;25.90;56.40;;;;;;5044027;28;20514;-88
2022/06/19 07:28:43;;;;;;;5.60;2.13;;;;;;;;;;5030764;28;20423;-88
2022/06/19 07:31:10;;;;;;;8.03;3.30;;;25.90;56.50;;;;;;5047989;28;20422;-89
2022/06/19 07:33:37;;;;;;;17.70;2.97;;;25.90;57.00;;;;;;5048246;28;20422;-88
2022/06/19 07:36:04;;;;;;;6.77;3.20;;;26.00;57.00;;;;;;5049058;28;20902;-88
2022/06/19 07:38:30;;;;;;;7.57;2.90;;;;;;;;;;5050305;28;20458;-88
2022/06/19 07:40:56;;;;;;;7.70;3.83;;;;;;;;;;5051098;28;20399;-88
2022/06/19 07:43:22;;;;;;;11.80;3.60;;;;;;;;;;5049854;28;20793;-90
2022/06/19 07:45:50;;;;;;;3.90;2.83;;;26.00;56.70;;;;;;5048527;28;20940;-88
2022/06/19 07:51:00;;;;;;;3.53;3.00;;;;;;;;;;5049600;28;20418;-88
2022/06/19 07:53:26;;;;;;;3.40;3.20;;;;;;;;;;5049909;28;20817;-88
2022/06/19 07:55:52;;;;;;;4.00;2.73;;;;;;;;;;5049890;28;20552;-88
2022/06/19 07:58:18;;;;;;;7.00;3.60;;;;;;;;;;5049313;28;20203;-88
2022/06/19 08:00:44;;;;;;;4.97;3.70;;;;;;;;;;5047626;28;20439;-89
2022/06/19 08:03:10;;;;;;;5.20;3.50;;;;;;;;;;5045046;28;20442;-90
2022/06/19 08:05:38;;;;;;;5.40;2.67;;;26.00;56.40;;;;;;5049971;28;20419;-88
2022/06/19 08:08:09;;;;;;;3.00;2.80;;;26.80;57.10;;;;;;5039286;28;20474;-88
2022/06/19 08:10:42;;;;;;;2.80;2.57;;;26.20;70.50;;;;;;5044402;28;20449;-89
2022/06/19 08:13:09;;;;;;;5.37;3.23;;;22.90;55.10;;;;;;5044016;28;20464;-89
2022/06/19 08:15:35;;;;;;;7.50;2.97;;;;;;;;;;5049329;28;20853;-89
2022/06/19 08:18:02;;;;;;;3.43;3.10;;;25.50;56.00;;;;;;5049001;28;20466;-88
2022/06/19 08:20:28;;;;;;;2.63;2.43;;;26.00;56.50;;;;;;5046950;28;20782;-88
2022/06/19 08:22:54;;;;;;;3.37;2.33;;;;;;;;;;5049163;28;20496;-88
2022/06/19 08:25:21;;;;;;;2.67;2.47;;;26.00;56.70;;;;;;5049591;28;21233;-88
2022/06/19 08:27:49;;;;;;;6.83;3.07;;;26.00;56.70;;;;;;5048977;28;20441;-88
2022/06/19 08:30:25;;;;;;;2.67;2.53;;;26.00;56.70;;;;;;5049304;28;20850;-89
2022/06/19 08:32:52;;;;;;;3.83;2.83;;;26.00;56.80;;;;;;5044554;28;20563;-90
2022/06/19 08:35:18;;;;;;;2.80;2.50;;;;;;;;;;5056617;28;20809;-89
2022/06/19 08:37:45;;;;;;;4.87;2.37;;;26.00;56.80;;;;;;5049688;28;20466;-90
2022/06/19 08:40:40;;;;;;;3.00;2.77;;;26.00;56.30;;;;;;5049283;28;20433;-89
2022/06/19 08:44:10;;;;;;;4.87;2.67;;;26.00;56.20;;;;;;5048982;28;20912;-89
2022/06/19 08:47:20;;;;;;;5.17;2.70;;;26.10;56.20;;;;;;4961832;28;20433;-89
2022/06/19 08:49:46;;;;;;;3.13;2.93;;;;;;;;;;4971219;28;20425;-90
2022/06/19 08:52:12;;;;;;;3.43;2.53;;;;;;;;;;5040144;28;21016;-90
2022/06/19 08:55:22;;;;;;;2.60;2.40;;;26.00;56.20;;;;;;5044795;28;20253;-90
2022/06/19 08:58:13;;;;;;;3.83;2.43;;;26.30;56.90;;;;;;5023530;28;20235;-89
2022/06/19 09:00:59;;;;;;;5.17;2.47;;;26.10;64.40;;;;;;5048493;28;20419;-89
2022/06/19 09:06:59;;;;;;;2.63;2.37;;;25.80;79.10;;;;;;5050322;28;20430;-89
2022/06/19 09:09:49;;;;;;;12.13;2.50;;;26.10;82.00;;;;;;5052298;28;20460;-89
2022/06/19 09:12:36;;;;;;;1.93;1.93;;;26.00;56.20;;;;;;5052442;28;20431;-89
2022/06/19 09:15:20;;;;;;;2.57;2.47;;;26.00;56.20;;;;;;5052077;28;20418;-89
2022/06/19 09:17:59;;;;;;;2.27;2.17;;;26.70;57.30;;;;;;5047050;28;20469;-88
2022/06/19 09:21:09;;;;;;;3.27;2.90;;;25.20;55.80;;;;;;5047782;28;20446;-89
2022/06/19 09:24:04;;;;;;;3.00;2.80;;;27.20;61.30;;;;;;5047848;28;20906;-89
2022/06/19 09:26:36;;;;;;;2.93;2.70;;;26.00;57.10;;;;;;5044959;28;20469;-90
2022/06/19 09:29:30;;;;;;;8.80;2.40;;;26.10;57.10;;;;;;5048659;28;20558;-90
2022/06/19 09:32:21;;;;;;;3.07;2.40;;;26.00;56.60;;;;;;5039699;28;20466;-90
2022/06/19 09:35:13;;;;;;;4.10;3.00;;;26.00;57.10;;;;;;5052450;28;20469;-90
2022/06/19 09:38:00;;;;;;;2.93;2.63;;;26.10;73.80;;;;;;5033723;28;20467;-90
2022/06/19 09:40:26;;;;;;;2.30;2.10;;;;;;;;;;5027673;28;20463;-90
2022/06/19 09:43:01;;;;;;;2.57;2.37;;;26.10;56.80;;;;;;5041469;28;20949;-90
2022/06/19 09:45:39;;;;;;;2.03;1.60;;;25.80;56.90;;;;;;5051627;28;20425;-91
2022/06/19 09:48:11;;;;;;;4.27;2.17;;;26.10;56.90;;;;;;5049787;28;20445;-90
2022/06/19 09:50:45;;;;;;;2.13;2.03;;;26.00;63.90;;;;;;5042860;28;20442;-90
2022/06/19 09:53:18;;;;;;;3.60;3.40;;;26.10;57.50;;;;;;5047996;28;20470;-89
2022/06/19 09:56:06;;;;;;;2.10;2.00;;;26.20;57.40;;;;;;5048880;28;20428;-90
2022/06/19 09:58:45;;;;;;;2.53;2.33;;;26.10;57.40;;;;;;5049150;28;20602;-90
2022/06/19 10:01:11;;;;;;;2.17;2.07;;;;;;;;;;5041040;28;20512;-90
2022/06/19 10:03:44;;;;;;;2.00;1.90;;;26.20;63.10;;;;;;5050353;28;20445;-90
2022/06/19 10:06:15;;;;;;;3.07;2.00;;;26.10;57.10;;;;;;5052672;28;20464;-91
2022/06/19 10:08:47;;;;;;;2.37;2.13;;;;;;;;;;5046576;28;20447;-89
2022/06/19 10:11:26;;;;;;;2.07;1.97;;;26.20;57.70;;;;;;5054618;28;20484;-90
2022/06/19 10:14:05;;;;;;;2.30;2.20;;;26.20;57.50;;;;;;5046025;28;20435;-90
2022/06/19 10:16:44;;;;;;;1.80;1.70;;;26.20;67.00;;;;;;5045657;28;20431;-90
2022/06/19 10:19:19;;;;;;;3.70;2.30;;;26.60;58.20;;;;;;5048958;28;20465;-91
2022/06/19 10:22:15;;;;;;;5.33;2.30;;;26.40;63.20;;;;;;5050477;28;20965;-91
2022/06/19 10:24:47;;;;;;;6.07;2.50;;;;;;;;;;5046301;28;20914;-90
2022/06/19 10:27:21;;;;;;;2.80;1.93;;;26.20;57.80;;;;;;5049777;28;20419;-90
2022/06/19 10:30:07;;;;;;;2.67;2.47;;;26.20;57.70;;;;;;5048810;28;20438;-91
2022/06/19 10:32:45;;;;;;;1.90;1.80;;;26.00;57.70;;;;;;5049122;28;20430;-90
2022/06/19 10:35:27;;;;;;;3.57;2.37;;;26.50;62.90;;;;;;5051237;28;20427;-91
2022/06/19 10:38:38;;;;;;;2.27;2.10;;;26.20;78.00;;;;;;5030473;28;21118;-90
2022/06/19 10:41:03;;;;;;;4.97;2.20;;;;;;;;;;4965077;28;20526;-89
2022/06/19 10:43:38;;;;;;;6.83;2.30;;;26.20;58.60;;;;;;5022225;28;20510;-89
2022/06/19 10:46:11;;;;;;;2.33;2.13;;;26.00;58.70;;;;;;5040559;28;20959;-90
2022/06/19 10:49:24;;;;;;;3.13;2.10;;;26.20;58.10;;;;;;5048525;28;20458;-89
2022/06/19 10:52:17;;;;;;;8.60;4.33;;;26.30;58.20;;;;;;5040598;28;20455;-89
2022/06/19 10:55:05;;;;;;;5.27;2.70;;;26.40;58.90;;;;;;5048075;28;20455;-87
2022/06/19 10:57:33;;;;;;;3.17;2.30;;;27.50;59.10;;;;;;5049340;28;20984;-85
2022/06/19 11:00:05;;;;;;;2.30;2.10;;;26.30;58.40;;;;;;5044369;28;20782;-86
2022/06/19 11:05:30;;;;;;;2.93;2.00;;;27.80;60.00;;;;;;5050078;28;20517;-86
2022/06/19 11:07:56;;;;;;;4.00;2.03;;;;;;;;;;5049962;28;20513;-87
2022/06/19 11:10:35;;;;;;;2.40;2.20;;;26.40;59.20;;;;;;5050864;28;20438;-85
2022/06/19 11:13:03;;;;;;;2.20;2.00;;;;;;;;;;5048774;28;20468;-85
2022/06/19 11:15:29;;;;;;;1.97;1.87;;;;;;;;;;5050970;28;20417;-87
2022/06/19 11:18:07;;;;;;;3.10;2.10;;;26.50;59.80;;;;;;5050558;28;20450;-87
2022/06/19 11:20:33;;;;;;;2.30;2.20;;;26.50;59.60;;;;;;5032101;28;20427;-85
2022/06/19 11:23:05;;;;;;;4.40;2.30;;;26.60;63.00;;;;;;5051496;28;20453;-88
2022/06/19 11:25:34;;;;;;;2.30;1.97;;;26.50;59.90;;;;;;5051368;28;20430;-87
2022/06/19 11:28:21;;;;;;;2.90;2.43;;;26.60;59.70;;;;;;5050189;28;20411;-86
2022/06/19 11:30:54;;;;;;;4.37;2.90;;;26.50;60.50;;;;;;5044332;28;20608;-83
2022/06/19 11:33:28;;;;;;;3.30;2.40;;;26.60;83.30;;;;;;5030564;28;20484;-83
2022/06/19 11:35:57;;;;;;;4.80;2.60;;;27.00;59.70;;;;;;5050996;28;20411;-83
2022/06/19 11:38:49;;;;;;;2.60;2.50;;;26.70;58.90;;;;;;5044336;28;20952;-82
2022/06/19 11:41:21;;;;;;;4.60;3.30;;;26.60;58.70;;;;;;5034553;28;20423;-83
2022/06/19 11:44:25;;;;;;;4.23;2.67;;;26.40;60.30;;;;;;5049782;28;20715;-83
2022/06/19 11:46:54;;;;;;;2.97;2.77;;;26.70;59.10;;;;;;5047864;28;20430;-83
2022/06/19 11:49:36;;;;;;;3.33;2.60;;;26.70;58.50;;;;;;5050341;28;20466;-83
2022/06/19 11:52:05;;;;;;;15.50;2.30;;;26.70;58.90;;;;;;5050529;28;20617;-83
2022/06/19 11:54:40;;;;;;;2.90;2.70;;;26.50;59.00;;;;;;5048165;28;20929;-83
2022/06/19 11:57:24;;;;;;;3.37;2.50;;;26.90;77.90;;;;;;5049310;28;20430;-83
2022/06/19 11:59:56;;;;;;;3.20;3.00;;;26.90;70.30;;;;;;5047064;28;20521;-89
2022/06/19 12:02:25;;;;;;;3.53;3.10;;;26.70;58.60;;;;;;5023940;28;20552;-79
2022/06/19 12:04:57;;;;;;;8.17;2.53;;;26.80;60.00;;;;;;5050851;28;20446;-81
2022/06/19 12:07:26;;;;;;;3.00;2.90;;;26.80;59.40;;;;;;5042930;28;20443;-82
2022/06/19 12:09:59;;;;;;;3.60;2.93;;;26.90;61.70;;;;;;5043382;28;20541;-85
2022/06/19 12:12:25;;;;;;;3.60;3.30;;;26.80;59.20;;;;;;5048222;28;20442;-85
2022/06/19 12:14:53;;;;;;;12.10;3.00;;;26.70;61.40;;;;;;5049714;28;20399;-84
2022/06/19 12:17:32;;;;;;;11.73;3.50;;;25.40;57.90;;;;;;5058409;28;20517;-83
2022/06/19 12:20:19;;;;;;;2.57;2.47;;;26.80;58.80;;;;;;5051399;28;20407;-85
2022/06/19 12:23:01;;;;;;;7.50;3.00;;;26.90;60.10;;;;;;5045997;28;20439;-85
2022/06/19 12:25:35;;;;;;;5.70;2.43;;;26.70;66.60;;;;;;5049090;28;20400;-81
2022/06/19 12:28:20;;;;;;;3.50;3.20;;;26.60;58.80;;;;;;5067239;28;20580;-82
2022/06/19 12:30:45;;;;;;;3.00;2.80;;;;;;;;;;5050259;28;20471;-84
2022/06/19 12:33:22;;;;;;;5.87;3.37;;;26.90;58.80;;;;;;5050791;28;20605;-82
2022/06/19 12:35:49;;;;;;;3.87;2.37;;;27.10;65.70;;;;;;5049123;28;20192;-83
2022/06/19 12:38:19;;;;;;;2.90;2.70;;;27.00;59.50;;;;;;5052374;28;20484;-85
2022/06/19 12:41:04;;;;;;;6.10;2.67;;;27.00;60.40;;;;;;5026940;28;20969;-83
2022/06/19 12:44:03;;;;;;;4.00;3.20;;;27.00;59.40;;;;;;5018545;28;20840;-85
2022/06/19 12:46:40;;;;;;;4.30;2.50;;;27.00;58.80;;;;;;5051547;28;20446;-83
2022/06/19 12:49:32;;;;;;;2.63;2.50;;;27.10;77.90;;;;;;5051190;28;20430;-83
2022/06/19 12:52:30;;;;;;;2.30;2.20;;;27.00;58.60;;;;;;5044937;28;20453;-83
2022/06/19 12:55:30;;;;;;;3.17;2.87;;;27.00;58.60;;;;;;5062597;28;20422;-84
2022/06/19 12:58:01;;;;;;;3.93;3.60;;;27.00;58.40;;;;;;5036650;28;20463;-84
2022/06/19 13:00:50;;;;;;;2.90;2.70;;;26.90;58.30;;;;;;5043471;28;20890;-83
2022/06/19 13:03:38;;;;;;;3.10;2.63;;;26.90;82.20;;;;;;5052706;28;20919;-84
2022/06/19 13:06:27;;;;;;;4.00;3.37;;;26.80;67.90;;;;;;5046505;28;20410;-84
2022/06/19 13:09:23;;;;;;;2.50;2.30;;;26.90;58.20;;;;;;5052305;28;20447;-83
2022/06/19 13:11:57;;;;;;;2.40;2.20;;;26.90;58.90;;;;;;5051274;28;20898;-83
2022/06/19 13:14:55;;;;;;;12.83;2.37;;;28.60;60.10;;;;;;5034083;28;20411;-84
2022/06/19 13:17:34;;;;;;;2.13;2.03;;;27.50;58.50;;;;;;5047950;28;20532;-85
2022/06/19 13:20:00;;;;;;;3.27;2.63;;;;;;;;;;5040298;28;20435;-83
2022/06/19 13:22:45;;;;;;;2.93;2.67;;;26.80;58.00;;;;;;5037168;28;20450;-84
2022/06/19 13:25:38;;;;;;;4.57;2.17;;;26.60;57.70;;;;;;5055082;28;20188;-84
2022/06/19 13:28:28;;;;;;;2.63;2.53;;;26.80;57.80;;;;;;5052214;28;20516;-85
2022/06/19 13:31:04;;;;;;;1.83;1.73;;;26.90;64.20;;;;;;5050998;28;20423;-85
2022/06/19 13:33:54;;;;;;;2.83;2.63;;;26.80;59.80;;;;;;5034171;28;20513;-84
2022/06/19 13:36:41;;;;;;;2.60;2.40;;;26.80;58.40;;;;;;5051846;28;20942;-85
2022/06/19 13:39:15;;;;;;;2.67;2.50;;;26.80;57.70;;;;;;5049797;28;20867;-85
2022/06/19 13:41:46;;;;;;;2.67;2.43;;;26.60;68.70;;;;;;5047120;28;20552;-84
2022/06/19 13:44:30;;;;;;;2.67;2.47;;;26.80;58.30;;;;;;5051589;28;20504;-85
2022/06/19 13:47:07;;;;;;;2.53;2.43;;;26.80;58.30;;;;;;5038078;28;20512;-85
2022/06/19 13:49:51;;;;;;;3.33;2.33;;;27.00;65.10;;;;;;5037416;28;20441;-84
2022/06/19 13:53:04;;;;;;;2.50;2.40;;;26.80;57.80;;;;;;5048726;28;20445;-85
2022/06/19 13:56:08;;;;;;;2.87;2.70;;;26.70;57.90;;;;;;5039803;28;20427;-84
2022/06/19 13:59:10;;;;;;;2.60;2.50;;;26.90;58.00;;;;;;5039516;28;20458;-85
2022/06/19 14:01:54;;;;;;;2.23;2.13;;;26.80;57.90;;;;;;5049211;28;20587;-85
2022/06/19 14:04:47;;;;;;;2.23;2.13;;;26.90;76.10;;;;;;5047255;28;20425;-85
2022/06/19 14:07:31;;;;;;;2.00;1.93;;;26.80;57.90;;;;;;5037895;28;20525;-84
2022/06/19 14:10:11;;;;;;;2.07;2.07;;;26.90;58.00;;;;;;5047468;28;20514;-85